Time;durP1;ratioP1;P1;durP2;ratioP2;P2;SDS_P1;SDS_P2;PMS_P1;PMS_P2;Temp;Humidity;BMP_temperature;BMP_pressure;BME280_temperature;BME280_humidity;BME280_pressure;Samples;Min_cycle;Max_cycle;Signal;HPM_P1;HPM_P2
2022/08/16 00:02:18;;;;;;;10.38;6.95;;;;;;;20.16;69.61;100383.53;5001903;28;20428;-90
2022/08/16 00:04:44;;;;;;;8.43;7.30;;;;;;;20.13;69.79;100379.25;5008044;28;20117;-87
2022/08/16 00:07:09;;;;;;;10.02;7.22;;;;;;;20.03;69.90;100375.78;5002864;28;20030;-89
2022/08/16 00:09:35;;;;;;;9.70;8.10;;;;;;;20.08;70.22;100381.56;5004861;28;20042;-85
2022/08/16 00:12:01;;;;;;;10.35;7.97;;;;;;;19.97;70.02;100376.34;4994642;28;20034;-87
2022/08/16 00:14:29;;;;;;;10.57;8.90;;;;;;;20.00;70.39;100383.31;4991828;28;20030;-87
2022/08/16 00:16:56;;;;;;;11.35;9.48;;;;;;;19.97;70.97;100395.28;4986850;28;20034;-87
2022/08/16 00:19:26;;;;;;;13.68;10.40;;;;;;;19.98;70.46;100393.41;4983216;28;20072;-86
2022/08/16 00:21:52;;;;;;;15.98;10.98;;;;;;;19.92;71.39;100389.47;4982287;28;20119;-85
2022/08/16 00:24:19;;;;;;;15.13;11.70;;;;;;;19.90;71.34;100396.88;4981176;28;20028;-84
2022/08/16 00:26:45;;;;;;;15.32;12.82;;;;;;;19.93;71.25;100401.13;4988528;28;20054;-86
2022/08/16 00:29:12;;;;;;;15.45;12.63;;;;;;;19.93;71.89;100401.13;4973404;28;20125;-86
2022/08/16 00:31:38;;;;;;;15.13;12.80;;;;;;;19.93;71.69;100403.81;4996121;28;20113;-85
2022/08/16 00:34:04;;;;;;;13.85;12.43;;;;;;;19.88;71.95;100404.28;4984972;28;20049;-85
2022/08/16 00:36:29;;;;;;;16.25;14.40;;;;;;;19.86;72.08;100400.88;4981437;28;20034;-85
2022/08/16 00:38:54;;;;;;;16.45;13.55;;;;;;;19.85;72.14;100400.00;4971091;28;20047;-86
2022/08/16 00:41:20;;;;;;;14.68;12.75;;;;;;;19.80;72.05;100402.31;4971595;28;20531;-86
2022/08/16 00:43:46;;;;;;;15.13;12.75;;;;;;;19.73;72.43;100401.22;4996051;28;20039;-87
2022/08/16 00:46:24;;;;;;;15.45;12.43;;;;;;;19.65;72.87;100399.25;4986807;28;20034;-85
2022/08/16 00:48:50;;;;;;;15.65;13.35;;;;;;;19.66;72.77;100405.50;4976926;28;20444;-85
2022/08/16 00:51:17;;;;;;;14.38;11.98;;;;;;;19.62;73.04;100404.09;4981785;28;20033;-86
2022/08/16 00:53:43;;;;;;;14.30;12.07;;;;;;;19.58;72.81;100402.66;4984757;28;20473;-86
2022/08/16 00:56:12;;;;;;;13.80;12.40;;;;;;;19.55;72.94;100405.63;4986782;28;20423;-86
2022/08/16 00:58:42;;;;;;;17.67;12.30;;;;;;;19.51;73.11;100404.22;4974254;28;20109;-86
2022/08/16 01:01:09;;;;;;;15.13;12.20;;;;;;;19.47;73.08;100408.22;4981720;28;20040;-86
2022/08/16 01:03:36;;;;;;;13.48;12.13;;;;;;;19.48;73.22;100412.59;4985055;28;20027;-85
2022/08/16 01:06:03;;;;;;;13.38;11.18;;;;;;;19.49;72.78;100408.94;5000258;28;20472;-86
2022/08/16 01:08:29;;;;;;;13.70;11.65;;;;;;;19.46;72.72;100415.47;4987177;28;20193;-86
2022/08/16 01:10:56;;;;;;;12.43;11.23;;;;;;;19.41;72.94;100415.91;4993194;28;20251;-86
2022/08/16 01:13:26;;;;;;;16.02;11.98;;;;;;;19.37;73.42;100410.94;4994988;28;20038;-87
2022/08/16 01:16:29;;;;;;;12.52;11.30;;;;;;;19.31;72.59;100406.09;5008902;28;20038;-87
2022/08/16 01:19:08;;;;;;;15.07;11.68;;;;;;;19.29;73.04;100414.34;4988589;28;20023;-87
2022/08/16 01:21:45;;;;;;;13.93;11.43;;;;;;;19.18;73.17;100414.50;4990617;28;20030;-88
2022/08/16 01:24:38;;;;;;;12.27;11.00;;;;;;;19.22;72.81;100413.22;4989272;28;20040;-87
2022/08/16 01:27:08;;;;;;;12.10;10.90;;;;;;;19.17;73.72;100410.97;4992345;28;20104;-87
2022/08/16 01:29:58;;;;;;;12.90;10.73;;;;;;;19.20;73.20;100412.53;4991966;28;20077;-87
2022/08/16 01:32:23;;;;;;;12.10;10.77;;;;;;;19.09;73.69;100407.28;4982600;28;20031;-87
2022/08/16 01:34:49;;;;;;;13.98;11.75;;;;;;;19.12;74.18;100405.16;4983609;28;20037;-86
2022/08/16 01:37:14;;;;;;;12.88;10.77;;;;;;;19.12;73.55;100409.69;4986253;28;20113;-85
2022/08/16 01:39:41;;;;;;;12.95;11.32;;;;;;;19.12;74.11;100407.84;4994545;28;20038;-86
2022/08/16 01:42:07;;;;;;;12.15;10.82;;;;;;;19.06;73.91;100405.75;4989701;28;20125;-85
2022/08/16 01:44:34;;;;;;;14.07;11.93;;;;;;;19.09;74.31;100407.28;4998588;28;20022;-87
2022/08/16 01:46:59;;;;;;;13.20;10.90;;;;;;;19.05;73.63;100411.25;4990956;28;20088;-86
2022/08/16 01:49:31;;;;;;;11.55;10.35;;;;;;;19.00;73.36;100409.00;4989291;28;20025;-87
2022/08/16 01:52:00;;;;;;;11.95;10.50;;;;;;;19.03;74.19;100418.66;4982646;28;20054;-87
2022/08/16 01:54:26;;;;;;;12.73;11.35;;;;;;;18.99;73.98;100412.69;5008736;28;20454;-87
2022/08/16 01:56:52;;;;;;;12.13;10.68;;;;;;;18.99;74.51;100419.94;4987163;28;20050;-87
2022/08/16 01:59:18;;;;;;;11.48;10.30;;;;;;;18.90;75.05;100410.84;4996440;28;20418;-86
2022/08/16 02:01:45;;;;;;;12.05;10.85;;;;;;;18.94;74.50;100420.38;4987940;28;20117;-86
2022/08/16 02:04:11;;;;;;;13.73;11.07;;;;;;;18.85;75.07;100416.69;4986644;28;20365;-87
2022/08/16 02:06:39;;;;;;;11.90;10.80;;;;;;;18.83;74.60;100421.34;4994153;28;20081;-87
2022/08/16 02:09:06;;;;;;;12.43;11.13;;;;;;;18.76;74.72;100404.03;4994765;28;20399;-87
2022/08/16 02:11:32;;;;;;;14.77;10.90;;;;;;;18.78;75.13;100415.53;4987974;28;20026;-87
2022/08/16 02:13:58;;;;;;;12.98;11.02;;;;;;;18.69;75.51;100410.13;4995554;28;20029;-87
2022/08/16 02:16:25;;;;;;;15.65;11.07;;;;;;;18.71;75.13;100403.59;4990734;28;20038;-87
2022/08/16 02:18:51;;;;;;;12.52;11.30;;;;;;;18.72;75.17;100404.44;4988218;28;20046;-86
2022/08/16 02:21:17;;;;;;;13.65;11.30;;;;;;;18.70;75.19;100412.69;4981747;28;20423;-87
2022/08/16 02:23:43;;;;;;;13.30;11.00;;;;;;;18.65;75.39;100409.53;5001041;28;20475;-86
2022/08/16 02:26:08;;;;;;;12.30;11.00;;;;;;;18.64;76.04;100421.28;4994170;28;20110;-88
2022/08/16 02:28:34;;;;;;;12.40;11.20;;;;;;;18.60;75.63;100409.09;4992468;28;20058;-87
2022/08/16 02:31:05;;;;;;;12.38;10.38;;;;;;;18.61;75.47;100408.97;4988998;28;20057;-85
2022/08/16 02:33:30;;;;;;;13.25;11.38;;;;;;;18.57;76.03;100407.53;4999368;28;20093;-86
2022/08/16 02:35:56;;;;;;;13.45;11.30;;;;;;;18.53;75.78;100399.88;5004033;28;20026;-86
2022/08/16 02:38:21;;;;;;;13.20;11.20;;;;;;;18.56;76.03;100407.66;4989963;28;20125;-85
2022/08/16 02:40:47;;;;;;;12.38;11.15;;;;;;;18.53;76.35;100402.56;4998212;28;20027;-87
2022/08/16 02:43:12;;;;;;;17.80;12.77;;;;;;;18.48;76.33;100394.06;4999877;28;20026;-86
2022/08/16 02:45:37;;;;;;;14.40;11.95;;;;;;;18.51;76.34;100402.69;4991562;28;20034;-85
2022/08/16 02:48:03;;;;;;;14.77;12.15;;;;;;;18.45;76.58;100400.56;4983732;28;20079;-86
2022/08/16 02:50:28;;;;;;;14.25;11.80;;;;;;;18.44;76.22;100396.19;4995913;28;20132;-87
2022/08/16 02:52:54;;;;;;;13.98;12.45;;;;;;;18.44;77.00;100400.72;4993435;28;20269;-86
2022/08/16 02:55:20;;;;;;;13.30;12.00;;;;;;;18.36;76.79;100394.19;4981133;28;20035;-87
2022/08/16 02:57:46;;;;;;;15.38;12.00;;;;;;;18.37;76.97;100405.81;4978727;28;20555;-87
2022/08/16 03:00:13;;;;;;;16.85;12.90;;;;;;;18.31;77.25;100407.22;4992473;28;20117;-87
2022/08/16 03:02:40;;;;;;;16.10;13.40;;;;;;;18.23;77.00;100398.97;4990008;28;20042;-84
2022/08/16 03:05:08;;;;;;;15.30;12.88;;;;;;;18.13;77.53;100393.53;4998523;28;20038;-86
2022/08/16 03:07:34;;;;;;;17.35;13.55;;;;;;;18.13;77.87;100403.47;4986633;28;20030;-86
2022/08/16 03:09:59;;;;;;;14.38;12.88;;;;;;;18.05;78.33;100395.22;4986886;28;20383;-87
2022/08/16 03:12:25;;;;;;;14.02;12.63;;;;;;;18.04;78.11;100405.13;4988012;28;20154;-87
2022/08/16 03:14:50;;;;;;;14.48;13.02;;;;;;;17.98;78.57;100388.69;4990306;28;20480;-87
2022/08/16 03:17:17;;;;;;;16.40;13.95;;;;;;;17.94;78.78;100401.56;4993445;28;20114;-87
2022/08/16 03:19:42;;;;;;;15.05;13.55;;;;;;;17.98;78.82;100405.69;4993739;28;20081;-88
2022/08/16 03:22:08;;;;;;;14.75;13.25;;;;;;;17.95;78.16;100405.13;4990156;28;20059;-87
2022/08/16 03:24:33;;;;;;;16.48;13.65;;;;;;;17.91;78.99;100399.16;4987604;28;20321;-87
2022/08/16 03:27:00;;;;;;;16.25;14.05;;;;;;;17.86;78.58;100388.78;4998131;28;20104;-87
2022/08/16 03:29:27;;;;;;;15.23;13.73;;;;;;;17.94;79.24;100393.50;4990016;28;20038;-86
2022/08/16 03:31:53;;;;;;;16.45;14.07;;;;;;;17.86;79.11;100391.47;4992956;28;20038;-87
2022/08/16 03:34:19;;;;;;;15.93;14.23;;;;;;;17.88;79.61;100396.72;4987791;28;20464;-85
2022/08/16 03:36:44;;;;;;;16.02;13.88;;;;;;;17.88;79.39;100394.88;4992692;28;20030;-85
2022/08/16 03:39:10;;;;;;;16.98;14.68;;;;;;;17.85;79.30;100397.84;4981967;28;20050;-85
2022/08/16 03:41:36;;;;;;;16.30;14.20;;;;;;;17.85;79.61;100405.09;4983665;28;20144;-86
2022/08/16 03:44:02;;;;;;;17.75;14.10;;;;;;;17.85;79.37;100405.09;4975978;28;20026;-86
2022/08/16 03:46:28;;;;;;;17.05;14.55;;;;;;;17.87;79.47;100408.47;4990953;28;20058;-86
2022/08/16 03:48:54;;;;;;;17.40;15.10;;;;;;;17.81;79.91;100398.28;4984084;28;20058;-87
2022/08/16 03:51:19;;;;;;;18.52;14.57;;;;;;;17.82;79.89;100419.66;4983722;28;20030;-87
2022/08/16 03:53:44;;;;;;;16.60;14.20;;;;;;;17.81;79.56;100414.41;4985769;28;20035;-84
2022/08/16 03:56:10;;;;;;;17.58;15.63;;;;;;;17.78;80.14;100420.91;4975330;28;20026;-87
2022/08/16 03:58:35;;;;;;;18.73;15.13;;;;;;;17.77;79.48;100421.91;4986024;28;20042;-87
2022/08/16 04:01:02;;;;;;;16.98;15.02;;;;;;;17.68;80.28;100420.84;4982862;28;20065;-86
2022/08/16 04:03:28;;;;;;;17.70;14.85;;;;;;;17.72;79.99;100429.47;4991511;28;20080;-87
2022/08/16 04:05:53;;;;;;;17.40;15.52;;;;;;;17.70;80.17;100436.84;4984881;28;20383;-86
2022/08/16 04:08:20;;;;;;;16.58;14.82;;;;;;;17.68;80.44;100442.38;4987500;28;20534;-87
2022/08/16 04:10:47;;;;;;;18.23;15.50;;;;;;;17.65;80.65;100436.41;4983139;28;20125;-86
2022/08/16 04:13:13;;;;;;;20.02;14.85;;;;;;;17.70;80.46;100447.63;4995930;28;20031;-86
2022/08/16 04:15:39;;;;;;;19.95;15.75;;;;;;;17.68;80.53;100445.06;4991944;28;20022;-87
2022/08/16 04:18:05;;;;;;;16.90;15.02;;;;;;;17.69;80.19;100435.16;4988630;28;20031;-87
2022/08/16 04:20:30;;;;;;;19.63;15.88;;;;;;;17.67;80.78;100439.78;4993696;28;20518;-86
2022/08/16 04:22:56;;;;;;;19.42;16.85;;;;;;;17.60;81.01;100444.88;4995536;28;20026;-86
2022/08/16 04:25:22;;;;;;;17.95;16.15;;;;;;;17.64;80.32;100445.44;4989254;28;20026;-86
2022/08/16 04:27:48;;;;;;;19.42;16.33;;;;;;;17.70;80.16;100463.75;4994687;28;20030;-86
2022/08/16 04:30:16;;;;;;;20.67;17.20;;;;;;;17.62;80.87;100453.66;4984128;28;20095;-86
2022/08/16 04:32:42;;;;;;;17.85;15.93;;;;;;;17.65;80.52;100452.56;4984424;28;20022;-86
2022/08/16 04:35:15;;;;;;;19.65;16.02;;;;;;;17.67;80.27;100446.03;4989051;28;20030;-87
2022/08/16 04:37:41;;;;;;;24.00;17.50;;;;;;;17.66;80.70;100444.34;4985705;28;20106;-88
2022/08/16 04:40:09;;;;;;;17.73;15.77;;;;;;;17.70;80.32;100449.47;4993901;28;20041;-87
2022/08/16 04:42:37;;;;;;;19.95;16.50;;;;;;;17.71;80.65;100443.06;4982245;28;20476;-87
2022/08/16 04:45:03;;;;;;;17.90;15.98;;;;;;;17.74;79.67;100448.22;4982866;28;20038;-86
2022/08/16 04:47:30;;;;;;;19.83;16.88;;;;;;;17.67;80.39;100454.09;4988376;28;20026;-87
2022/08/16 04:49:56;;;;;;;18.80;15.82;;;;;;;17.76;80.02;100449.78;4991340;28;20062;-86
2022/08/16 04:52:21;;;;;;;19.95;16.45;;;;;;;17.79;80.37;100448.69;4985109;28;20049;-87
2022/08/16 04:54:46;;;;;;;19.05;17.13;;;;;;;17.82;79.79;100451.97;4983146;28;20398;-87
2022/08/16 04:57:12;;;;;;;17.60;15.82;;;;;;;17.79;79.74;100446.84;4996010;28;20033;-87
2022/08/16 04:59:37;;;;;;;18.20;15.23;;;;;;;17.84;79.45;100449.97;4982603;28;20438;-87
2022/08/16 05:02:03;;;;;;;18.92;15.15;;;;;;;17.84;79.42;100458.06;4981624;28;20088;-87
2022/08/16 05:04:31;;;;;;;15.82;13.95;;;;;;;17.81;79.36;100441.34;4996617;28;20026;-86
2022/08/16 05:06:57;;;;;;;17.98;14.60;;;;;;;17.84;78.78;100447.28;4990222;28;20391;-87
2022/08/16 05:09:22;;;;;;;17.73;14.20;;;;;;;17.81;79.35;100452.97;4984861;28;20026;-86
2022/08/16 05:11:48;;;;;;;15.95;13.80;;;;;;;17.85;79.31;100454.41;4976442;28;20109;-86
2022/08/16 05:14:13;;;;;;;18.35;13.20;;;;;;;17.82;79.45;100449.28;4984908;28;20041;-86
2022/08/16 05:16:39;;;;;;;16.75;13.43;;;;;;;17.87;78.14;100460.47;4978148;28;20037;-86
2022/08/16 05:19:05;;;;;;;14.55;13.02;;;;;;;17.86;78.38;100456.09;4982623;28;20019;-86
2022/08/16 05:21:31;;;;;;;16.90;12.80;;;;;;;17.86;78.95;100448.00;4984684;28;20027;-86
2022/08/16 05:23:57;;;;;;;14.95;12.85;;;;;;;17.91;78.48;100459.22;4992731;28;20033;-85
2022/08/16 05:26:24;;;;;;;13.93;12.40;;;;;;;17.98;78.63;100469.47;4988340;28;20534;-85
2022/08/16 05:28:50;;;;;;;16.38;13.20;;;;;;;18.03;78.31;100467.22;4991864;28;20511;-86
2022/08/16 05:31:15;;;;;;;13.90;12.60;;;;;;;18.06;78.16;100465.13;4981090;28;20062;-88
2022/08/16 05:33:41;;;;;;;14.50;12.10;;;;;;;18.14;77.61;100470.69;4988577;28;20037;-88
2022/08/16 05:36:07;;;;;;;13.43;11.82;;;;;;;18.19;77.75;100459.50;4984169;28;20033;-87
2022/08/16 05:38:32;;;;;;;14.98;12.40;;;;;;;18.31;77.20;100468.31;4985966;28;20043;-87
2022/08/16 05:40:59;;;;;;;16.67;12.50;;;;;;;18.42;76.99;100471.75;4988302;28;20133;-87
2022/08/16 05:43:25;;;;;;;15.60;12.40;;;;;;;18.53;75.60;100476.19;4984503;28;20061;-87
2022/08/16 05:45:51;;;;;;;14.00;12.50;;;;;;;18.52;76.03;100466.41;4974404;28;20102;-87
2022/08/16 05:48:16;;;;;;;16.10;12.35;;;;;;;18.69;75.67;100478.34;4977511;28;20031;-87
2022/08/16 05:50:41;;;;;;;15.77;12.15;;;;;;;18.84;74.44;100476.13;4981317;28;20444;-87
2022/08/16 05:53:07;;;;;;;17.98;12.32;;;;;;;18.87;74.34;100470.47;4986583;28;20121;-87
2022/08/16 05:55:32;;;;;;;14.50;12.32;;;;;;;19.01;74.07;100474.56;4982480;28;20030;-88
2022/08/16 05:57:57;;;;;;;14.07;12.68;;;;;;;19.11;73.31;100480.84;4977889;28;20027;-87
2022/08/16 06:00:23;;;;;;;14.10;12.38;;;;;;;19.31;73.21;100481.66;4982112;28;20069;-88
2022/08/16 06:02:50;;;;;;;15.68;12.30;;;;;;;19.48;72.46;100477.38;4984994;28;20068;-91
2022/08/16 06:05:15;;;;;;;13.65;12.23;;;;;;;19.56;72.26;100482.91;4982129;28;20105;-88
2022/08/16 06:07:41;;;;;;;13.75;11.40;;;;;;;19.65;71.33;100485.66;4974873;28;20105;-88
2022/08/16 06:10:07;;;;;;;16.02;12.80;;;;;;;19.73;71.12;100482.22;4983338;28;20117;-86
2022/08/16 06:12:32;;;;;;;14.82;11.88;;;;;;;19.97;70.25;100492.50;4980206;28;20026;-87
2022/08/16 06:15:01;;;;;;;15.55;13.90;;;;;;;20.20;69.28;100490.31;4980122;28;20022;-88
2022/08/16 06:17:28;;;;;;;14.38;12.05;;;;;;;20.33;68.93;100498.06;4992233;28;20030;-89
2022/08/16 06:19:54;;;;;;;15.23;12.10;;;;;;;20.51;68.07;100508.97;4986589;28;20054;-88
2022/08/16 06:22:19;;;;;;;13.00;11.80;;;;;;;20.61;67.05;100498.97;4984917;28;20538;-87
2022/08/16 06:24:45;;;;;;;14.27;12.02;;;;;;;20.70;66.51;100514.28;4982916;28;20102;-88
2022/08/16 06:27:11;;;;;;;15.13;11.65;;;;;;;20.85;66.64;100518.16;4983153;28;20121;-88
2022/08/16 06:29:36;;;;;;;13.68;11.65;;;;;;;21.02;65.78;100518.31;4984039;28;20039;-87
2022/08/16 06:32:02;;;;;;;13.52;11.60;;;;;;;21.14;65.10;100520.66;4981863;28;20354;-87
2022/08/16 06:34:28;;;;;;;13.05;11.48;;;;;;;21.29;64.49;100520.13;4981929;28;20030;-86
2022/08/16 06:36:53;;;;;;;16.80;13.55;;;;;;;21.29;63.92;100512.84;4986535;28;20026;-93
2022/08/16 06:39:18;;;;;;;16.60;12.82;;;;;;;21.37;63.78;100518.38;4988481;28;20078;-89
2022/08/16 06:41:44;;;;;;;13.13;11.82;;;;;;;21.55;63.89;100504.81;4985490;28;20133;-94
2022/08/16 06:44:09;;;;;;;14.55;12.80;;;;;;;21.48;62.50;100506.44;4985253;28;20027;-93
2022/08/16 06:46:39;;;;;;;17.10;13.13;;;;;;;21.59;62.84;100519.72;4994346;28;20093;-92
2022/08/16 06:49:07;;;;;;;16.60;13.20;;;;;;;21.60;63.36;100512.47;4994694;28;20022;-92
2022/08/16 06:51:33;;;;;;;14.38;12.98;;;;;;;21.88;62.52;100522.16;4990655;28;20022;-89
2022/08/16 06:54:00;;;;;;;13.77;12.35;;;;;;;22.06;62.51;100524.78;4990211;28;20423;-89
2022/08/16 06:56:25;;;;;;;14.52;12.77;;;;;;;22.16;60.90;100522.03;4991198;28;20026;-90
2022/08/16 06:58:51;;;;;;;13.70;12.40;;;;;;;22.25;60.80;100518.34;4984802;28;20382;-89
2022/08/16 07:01:18;;;;;;;14.45;11.23;;;;;;;22.38;60.22;100510.59;4992788;28;20037;-89
2022/08/16 07:03:43;;;;;;;11.88;10.55;;;;;;;22.69;60.41;100515.47;4982856;28;20109;-89
2022/08/16 07:06:10;;;;;;;13.65;11.45;;;;;;;22.87;58.93;100513.50;4982478;28;20061;-88
2022/08/16 07:08:36;;;;;;;12.93;11.63;;;;;;;22.98;58.03;100520.50;4989948;28;20026;-89
2022/08/16 07:11:01;;;;;;;12.90;11.32;;;;;;;23.05;58.45;100520.69;4987441;28;20121;-88
2022/08/16 07:13:28;;;;;;;14.57;11.18;;;;;;;23.26;57.39;100533.78;4988825;28;20136;-87
2022/08/16 07:15:55;;;;;;;16.60;12.73;;;;;;;23.44;56.56;100530.91;4989212;28;20061;-88
2022/08/16 07:18:21;;;;;;;14.70;10.82;;;;;;;23.62;56.49;100526.19;4984129;28;20217;-91
2022/08/16 07:20:48;;;;;;;15.45;11.50;;;;;;;23.92;54.96;100534.69;4977869;28;20038;-89
2022/08/16 07:23:13;;;;;;;13.00;11.02;;;;;;;24.12;56.30;100536.00;4988826;28;20037;-88
2022/08/16 07:25:39;;;;;;;13.63;10.95;;;;;;;24.51;54.53;100527.06;4984488;28;20030;-89
2022/08/16 07:28:04;;;;;;;13.02;11.25;;;;;;;24.93;52.30;100528.56;4982515;28;20014;-89
2022/08/16 07:30:32;;;;;;;16.88;12.05;;;;;;;25.36;52.65;100545.31;4981013;28;20456;-89
2022/08/16 07:32:57;;;;;;;12.18;10.73;;;;;;;25.62;50.63;100548.50;4978780;28;20046;-87
2022/08/16 07:35:23;;;;;;;12.93;11.73;;;;;;;25.72;49.25;100542.84;4979772;28;20365;-89
2022/08/16 07:37:49;;;;;;;14.07;11.18;;;;;;;25.78;49.26;100547.56;4985504;28;20138;-91
2022/08/16 07:40:15;;;;;;;11.43;10.18;;;;;;;25.93;48.19;100553.06;4985699;28;20572;-90
2022/08/16 07:42:40;;;;;;;12.52;11.15;;;;;;;25.97;49.03;100541.59;4988695;28;20027;-89
2022/08/16 07:45:07;;;;;;;10.93;9.82;;;;;;;26.19;47.97;100553.47;4979140;28;20053;-88
2022/08/16 07:47:32;;;;;;;12.20;10.40;;;;;;;26.33;47.18;100559.97;4982738;28;20031;-89
2022/08/16 07:49:59;;;;;;;10.68;9.60;;;;;;;26.54;48.04;100564.69;4975543;28;20503;-88
2022/08/16 07:52:25;;;;;;;12.20;9.30;;;;;;;27.13;46.78;100553.72;4980359;28;20420;-89
2022/08/16 07:54:50;;;;;;;10.63;8.77;;;;;;;27.73;45.17;100552.44;4977716;28;20092;-89
2022/08/16 07:57:15;;;;;;;9.73;8.70;;;;;;;28.23;44.82;100558.72;4982020;28;20026;-89
2022/08/16 07:59:43;;;;;;;10.18;9.07;;;;;;;28.48;42.79;100556.38;4979580;28;20029;-89
2022/08/16 08:02:09;;;;;;;10.15;8.80;;;;;;;28.89;41.58;100561.00;4986900;28;20030;-91
2022/08/16 08:04:34;;;;;;;12.02;9.40;;;;;;;29.22;41.74;100569.38;4986984;28;20030;-87
2022/08/16 08:07:00;;;;;;;10.25;9.25;;;;;;;29.39;41.43;100563.50;4976966;28;20041;-87
2022/08/16 08:09:25;;;;;;;12.88;9.48;;;;;;;29.59;40.55;100571.78;4978861;28;20532;-86
2022/08/16 08:11:50;;;;;;;9.48;8.57;;;;;;;29.67;39.69;100569.66;4977451;28;20031;-87
2022/08/16 08:14:16;;;;;;;9.07;8.18;;;;;;;30.11;38.59;100572.84;4985804;28;20073;-86
2022/08/16 08:16:42;;;;;;;9.52;8.63;;;;;;;30.53;37.73;100574.28;4984313;28;20023;-87
2022/08/16 08:19:11;;;;;;;11.48;8.70;;;;;;;30.59;38.04;100591.78;4976423;28;20037;-87
2022/08/16 08:21:39;;;;;;;10.68;9.65;;;;;;;30.53;38.61;100582.53;4981195;28;20101;-87
2022/08/16 08:24:06;;;;;;;11.10;8.38;;;;;;;30.97;37.92;100589.16;4977320;28;20034;-86
2022/08/16 08:26:32;;;;;;;13.00;8.75;;;;;;;31.11;37.20;100578.97;4977440;28;20193;-87
2022/08/16 08:28:57;;;;;;;12.20;9.15;;;;;;;31.33;37.17;100583.09;4988413;28;20046;-87
2022/08/16 08:31:23;;;;;;;9.52;8.07;;;;;;;31.65;36.00;100572.09;4994754;28;20042;-87
2022/08/16 08:33:48;;;;;;;12.27;9.50;;;;;;;31.72;35.73;100584.72;4996140;28;20093;-88
2022/08/16 08:36:22;;;;;;;10.50;9.40;;;;;;;31.93;35.39;100585.44;4992656;28;20022;-86
2022/08/16 08:38:49;;;;;;;9.50;8.63;;;;;;;32.32;34.70;100587.00;5001339;28;20034;-87
2022/08/16 08:41:15;;;;;;;9.57;8.32;;;;;;;32.58;33.81;100580.38;4992959;28;20039;-87
2022/08/16 08:43:41;;;;;;;10.98;8.50;;;;;;;32.76;33.92;100582.28;4988372;28;20403;-85
2022/08/16 08:46:07;;;;;;;9.00;7.47;;;;;;;33.05;32.04;100585.34;4990808;28;20027;-86
2022/08/16 08:48:32;;;;;;;7.60;6.45;;;;;;;33.54;31.43;100588.94;4990644;28;20045;-86
2022/08/16 08:50:58;;;;;;;7.82;6.32;;;;;;;33.94;30.71;100584.47;4996122;28;20037;-86
2022/08/16 08:53:25;;;;;;;7.28;6.10;;;;;;;34.31;30.10;100589.78;4989767;28;20026;-87
2022/08/16 08:55:51;;;;;;;11.13;6.57;;;;;;;34.39;29.18;100592.19;4988439;28;20041;-87
2022/08/16 08:58:16;;;;;;;7.25;6.22;;;;;;;34.27;29.51;100598.78;4984622;28;20034;-85
2022/08/16 09:00:41;;;;;;;7.35;6.65;;;;;;;33.90;29.69;100593.44;4990803;28;20044;-87
2022/08/16 09:03:07;;;;;;;7.53;6.53;;;;;;;33.23;30.20;100593.56;4983331;28;20027;-86
2022/08/16 09:05:33;;;;;;;7.50;6.50;;;;;;;32.75;31.59;100612.84;4984303;28;20062;-86
2022/08/16 09:07:59;;;;;;;7.43;6.78;;;;;;;32.35;32.37;100607.72;4989582;28;20558;-87
2022/08/16 09:10:24;;;;;;;7.88;6.22;;;;;;;32.58;31.29;100612.59;4990316;28;20113;-86
2022/08/16 09:12:49;;;;;;;8.75;6.40;;;;;;;32.33;31.36;100621.72;4978421;28;20109;-85
2022/08/16 09:15:15;;;;;;;7.55;6.35;;;;;;;32.10;32.40;100610.47;4984526;28;20109;-86
2022/08/16 09:17:42;;;;;;;6.63;5.80;;;;;;;32.78;31.16;100615.97;4985137;28;20031;-86
2022/08/16 09:20:09;;;;;;;6.32;5.80;;;;;;;33.65;30.01;100611.06;4980326;28;20031;-87
2022/08/16 09:22:36;;;;;;;7.18;5.63;;;;;;;34.67;28.44;100621.88;4979890;28;20027;-88
2022/08/16 09:25:01;;;;;;;7.22;5.68;;;;;;;35.37;27.70;100614.50;4984773;28;20027;-86
2022/08/16 09:27:28;;;;;;;8.95;5.55;;;;;;;35.60;27.84;100613.56;4990772;28;20022;-86
2022/08/16 09:29:53;;;;;;;6.72;5.03;;;;;;;35.71;26.35;100595.22;4983250;28;20030;-85
2022/08/16 09:32:19;;;;;;;5.70;4.80;;;;;;;36.09;25.27;100613.88;4977624;28;20045;-86
2022/08/16 09:34:44;;;;;;;5.35;4.85;;;;;;;36.27;25.40;100601.69;4981592;28;20575;-86
2022/08/16 09:37:12;;;;;;;5.88;5.20;;;;;;;37.03;24.09;100611.09;4977327;28;20035;-86
2022/08/16 09:39:37;;;;;;;10.52;5.32;;;;;;;37.20;23.32;100615.72;4970632;28;20089;-86
2022/08/16 09:42:03;;;;;;;8.43;4.72;;;;;;;37.38;24.49;100612.63;4978201;28;20046;-86
2022/08/16 09:44:29;;;;;;;11.55;6.97;;;;;;;37.74;23.30;100615.75;4988756;28;20030;-86
2022/08/16 09:46:55;;;;;;;5.13;4.63;;;;;;;38.39;23.60;100606.34;4978405;28;20117;-86
2022/08/16 09:49:21;;;;;;;6.10;5.50;;;;;;;38.80;21.04;100615.78;4985946;28;20038;-87
2022/08/16 09:51:52;;;;;;;5.63;5.10;;;;;;;38.78;21.34;100615.19;4971956;28;20022;-86
2022/08/16 09:54:18;;;;;;;4.60;4.13;;;;;;;38.66;21.58;100619.28;4982614;28;20076;-87
2022/08/16 09:56:43;;;;;;;4.88;4.40;;;;;;;38.64;21.29;100622.34;4976017;28;20152;-87
2022/08/16 09:59:10;;;;;;;6.47;4.43;;;;;;;38.79;21.40;100616.03;4980760;28;20034;-87
2022/08/16 10:01:37;;;;;;;5.03;4.45;;;;;;;38.96;20.50;100622.25;4990486;28;20117;-86
2022/08/16 10:04:04;;;;;;;4.72;4.32;;;;;;;39.07;20.77;100617.53;4992032;28;20044;-86
2022/08/16 10:06:30;;;;;;;5.25;4.75;;;;;;;39.34;20.34;100620.19;4980452;28;20038;-86
2022/08/16 10:08:55;;;;;;;6.60;4.60;;;;;;;40.02;19.94;100622.78;4982643;28;20136;-87
2022/08/16 10:14:05;;;;;;;5.43;4.57;;;;;;;40.37;18.94;100613.53;4984293;28;20053;-93
2022/08/16 10:16:30;;;;;;;8.02;4.45;;;;;;;39.40;20.05;100629.38;4991464;28;20026;-92
2022/08/16 10:18:56;;;;;;;7.90;4.57;;;;;;;39.77;19.71;100626.38;4988657;28;20221;-87
2022/08/16 10:21:22;;;;;;;6.53;4.57;;;;;;;40.03;20.03;100630.00;4980713;28;20042;-86
2022/08/16 10:23:48;;;;;;;5.05;4.65;;;;;;;40.39;19.30;100622.47;4984365;28;20082;-86
2022/08/16 10:26:14;;;;;;;5.00;4.45;;;;;;;40.72;19.31;100621.03;4975315;28;20019;-86
2022/08/16 10:28:40;;;;;;;5.68;4.50;;;;;;;41.18;18.22;100622.78;4992724;28;20029;-86
2022/08/16 10:31:07;;;;;;;6.55;4.30;;;;;;;41.06;18.86;100620.38;4977924;28;20062;-86
2022/08/16 10:33:32;;;;;;;6.75;4.15;;;;;;;40.83;18.26;100619.03;4995531;28;20026;-86
2022/08/16 10:35:59;;;;;;;5.82;5.22;;;;;;;41.23;18.07;100615.25;4996536;28;20464;-85
2022/08/16 10:38:26;;;;;;;5.80;5.05;;;;;;;41.31;18.16;100620.22;4996765;28;20102;-86
2022/08/16 10:40:53;;;;;;;7.32;5.25;;;;;;;41.51;17.57;100616.50;4987079;28;20069;-85
2022/08/16 10:43:19;;;;;;;4.78;4.30;;;;;;;42.06;17.99;100613.56;4977045;28;20022;-86
2022/08/16 10:45:44;;;;;;;5.20;3.63;;;;;;;42.49;17.37;100608.94;4993261;28;20080;-85
2022/08/16 10:48:10;;;;;;;6.10;3.90;;;;;;;42.38;16.64;100617.75;4983836;28;20503;-86
2022/08/16 10:50:36;;;;;;;4.40;3.92;;;;;;;43.03;16.21;100624.56;4988303;28;20557;-87
2022/08/16 10:53:05;;;;;;;6.90;3.83;;;;;;;42.99;16.60;100617.88;4993666;28;20117;-86
2022/08/16 10:55:35;;;;;;;3.95;3.63;;;;;;;43.12;16.24;100615.50;4982166;28;20042;-85
2022/08/16 10:58:03;;;;;;;5.18;3.97;;;;;;;43.43;15.77;100618.69;4979248;28;20034;-86
2022/08/16 11:00:31;;;;;;;4.68;3.70;;;;;;;43.44;15.78;100629.63;4983067;28;20165;-86
2022/08/16 11:02:57;;;;;;;6.95;3.65;;;;;;;43.30;15.63;100633.47;4989775;28;20057;-85
2022/08/16 11:05:23;;;;;;;3.97;3.58;;;;;;;43.37;16.06;100631.13;4989946;28;20026;-86
2022/08/16 11:07:49;;;;;;;5.05;3.88;;;;;;;43.82;15.72;100626.81;4987541;28;20035;-84
2022/08/16 11:10:19;;;;;;;5.47;3.70;;;;;;;44.66;15.45;100637.13;4984641;28;20483;-86
2022/08/16 11:12:45;;;;;;;4.82;4.05;;;;;;;44.31;15.40;100642.25;4993876;28;20089;-86
2022/08/16 11:15:11;;;;;;;4.30;3.90;;;;;;;44.41;14.95;100636.47;4986982;28;20034;-85